createdAt,value
2023-03-12T00:00:25.759Z,95.96
2023-03-12T00:03:32.107Z,96.23
2023-03-12T00:06:19.199Z,96.22
2023-03-12T00:09:05.609Z,96.57
2023-03-12T00:11:52.207Z,96.48
2023-03-12T00:14:38.881Z,96.29
2023-03-12T00:17:25.303Z,95.71
2023-03-12T00:20:12.056Z,95.84
2023-03-12T00:22:58.846Z,95.82
2023-03-12T00:25:46.863Z,95.93
2023-03-12T00:28:34.512Z,96.14
2023-03-12T00:31:26.943Z,96.08
2023-03-12T00:34:13.172Z,95.53
2023-03-12T00:36:59.598Z,95.22
2023-03-12T00:39:46.294Z,94.66
2023-03-12T00:42:32.827Z,94.15
2023-03-12T00:45:19.469Z,94.37
2023-03-12T00:48:06.242Z,94.85
2023-03-12T00:50:52.716Z,95.70
2023-03-12T00:53:39.459Z,96.77
2023-03-12T00:56:25.646Z,97.11
2023-03-12T00:59:13.712Z,96.71
2023-03-12T01:02:00.171Z,96.95
2023-03-12T01:04:46.315Z,97.40
2023-03-12T01:07:32.693Z,97.78
2023-03-12T01:10:22.530Z,98.03
2023-03-12T01:13:09.208Z,97.48
2023-03-12T01:15:55.977Z,96.65
2023-03-12T01:18:42.424Z,96.68
2023-03-12T01:21:29.678Z,96.53
2023-03-12T01:24:16.438Z,96.69
2023-03-12T01:27:04.275Z,97.19
2023-03-12T01:29:51.069Z,97.22
2023-03-12T01:32:37.735Z,97.58
2023-03-12T01:35:25.235Z,97.88
2023-03-12T01:38:14.850Z,97.97
2023-03-12T01:41:01.361Z,97.87
2023-03-12T01:43:47.885Z,97.63
2023-03-12T01:46:42.662Z,97.59
2023-03-12T01:49:34.386Z,97.53
2023-03-12T01:52:35.271Z,96.98
2023-03-12T01:55:21.909Z,96.21
2023-03-12T01:58:08.174Z,95.66
2023-03-12T02:00:55.035Z,95.28
2023-03-12T02:03:43.191Z,95.42
2023-03-12T02:06:43.224Z,95.23
2023-03-12T02:09:32.919Z,95.22
2023-03-12T02:12:19.601Z,94.70
2023-03-12T02:15:07.240Z,94.29
2023-03-12T02:17:53.891Z,93.91
2023-03-12T02:21:23.961Z,93.46
2023-03-12T02:24:35.639Z,93.15
2023-03-12T02:27:23.113Z,92.83
2023-03-12T02:30:15.338Z,92.50
2023-03-12T02:33:07.431Z,92.23
2023-03-12T02:35:54.950Z,91.96
2023-03-12T02:38:47.105Z,91.51
2023-03-12T02:41:41.202Z,91.25
2023-03-12T02:44:33.657Z,90.65
2023-03-12T02:47:20.352Z,90.49
2023-03-12T02:50:08.030Z,89.83
2023-03-12T02:52:54.592Z,88.89
2023-03-12T02:55:41.026Z,88.49
2023-03-12T02:58:27.361Z,88.37
2023-03-12T03:01:14.087Z,88.59
2023-03-12T03:04:03.773Z,88.87
2023-03-12T03:06:50.451Z,89.26
2023-03-12T03:09:37.190Z,89.54
2023-03-12T03:12:23.597Z,89.58
2023-03-12T03:15:11.609Z,89.74
2023-03-12T03:17:58.706Z,89.60
2023-03-12T03:20:45.111Z,89.47
2023-03-12T03:23:32.781Z,89.33
2023-03-12T03:26:23.349Z,89.29
2023-03-12T03:29:09.931Z,89.15
2023-03-12T03:31:56.589Z,89.20
2023-03-12T03:34:42.866Z,89.49
2023-03-12T03:37:29.692Z,90.24
2023-03-12T03:40:16.348Z,88.93
2023-03-12T03:43:02.746Z,88.48
2023-03-12T03:45:56.750Z,88.53
2023-03-12T03:48:43.334Z,88.66
2023-03-12T03:51:30.274Z,88.61
2023-03-12T03:54:19.793Z,88.41
2023-03-12T03:57:06.504Z,88.30
2023-03-12T03:59:52.993Z,88.87
2023-03-12T04:02:39.316Z,89.06
2023-03-12T04:05:27.119Z,89.19
2023-03-12T04:08:14.045Z,89.19
2023-03-12T04:11:08.523Z,88.80
2023-03-12T04:13:55.076Z,88.40
2023-03-12T04:16:43.077Z,87.91
2023-03-12T04:19:31.313Z,87.45
2023-03-12T04:22:17.870Z,86.68
2023-03-12T04:25:06.993Z,86.27
2023-03-12T04:27:53.778Z,85.60
2023-03-12T04:30:40.138Z,85.12
2023-03-12T04:33:34.021Z,85.23
2023-03-12T04:36:20.615Z,85.87
2023-03-12T04:39:08.973Z,86.01
2023-03-12T04:41:57.080Z,85.72
2023-03-12T04:44:43.862Z,85.59
2023-03-12T04:47:32.611Z,85.46
2023-03-12T04:50:19.982Z,85.49
2023-03-12T04:53:06.484Z,85.32
2023-03-12T04:55:53.400Z,85.31
2023-03-12T04:58:39.990Z,85.36
2023-03-12T05:01:33.987Z,85.74
2023-03-12T05:04:22.637Z,85.68
2023-03-12T05:07:09.597Z,85.61
2023-03-12T05:09:56.458Z,85.29
2023-03-12T05:12:42.718Z,84.75
2023-03-12T05:15:29.439Z,84.46
2023-03-12T05:18:16.758Z,84.46
2023-03-12T05:21:12.187Z,84.47
2023-03-12T05:23:59.281Z,84.88
2023-03-12T05:26:46.771Z,84.83
2023-03-12T05:29:39.096Z,84.89
2023-03-12T05:32:26.121Z,84.90
2023-03-12T05:35:13.112Z,84.82
2023-03-12T05:38:00.546Z,84.73
2023-03-12T05:40:53.769Z,84.31
2023-03-12T05:43:41.497Z,83.95
2023-03-12T05:46:28.789Z,83.36
2023-03-12T05:49:15.473Z,82.59
2023-03-12T05:52:01.731Z,82.42
2023-03-12T05:54:48.185Z,82.05
2023-03-12T05:57:35.119Z,81.46
2023-03-12T06:00:21.996Z,80.51
2023-03-12T06:03:13.802Z,78.63
2023-03-12T06:06:01.055Z,77.35
2023-03-12T06:08:48.588Z,75.41
2023-03-12T06:11:35.307Z,74.44
2023-03-12T06:14:21.789Z,74.17
2023-03-12T06:17:09.161Z,73.99
2023-03-12T06:19:55.967Z,74.40
2023-03-12T06:22:42.465Z,73.97
2023-03-12T06:25:29.247Z,74.56
2023-03-12T06:28:16.948Z,75.21
2023-03-12T06:31:06.662Z,79.11
2023-03-12T06:33:53.188Z,85.03
2023-03-12T06:36:39.627Z,87.24
2023-03-12T06:39:26.552Z,87.65
2023-03-12T06:42:14.182Z,87.21
2023-03-12T06:45:00.456Z,87.09
2023-03-12T06:47:47.244Z,86.81
2023-03-12T06:50:33.933Z,85.06
2023-03-12T06:53:21.556Z,83.62
2023-03-12T06:56:10.909Z,82.57
2023-03-12T06:58:57.376Z,80.88
2023-03-12T07:01:43.938Z,79.05
2023-03-12T07:04:30.519Z,77.57
2023-03-12T07:07:17.668Z,75.08
2023-03-12T07:10:06.045Z,72.61
2023-03-12T07:12:52.246Z,63.87
2023-03-12T07:15:38.896Z,56.89
2023-03-12T07:18:25.609Z,55.84
2023-03-12T07:21:12.161Z,60.05
2023-03-12T07:24:00.256Z,65.81
2023-03-12T07:26:46.542Z,71.51
2023-03-12T07:29:32.914Z,74.57
2023-03-12T07:32:19.224Z,77.22
2023-03-12T07:35:06.051Z,79.08
2023-03-12T07:37:52.386Z,79.97
2023-03-12T07:40:39.485Z,81.41
2023-03-12T07:43:26.823Z,83.06
2023-03-12T07:46:14.891Z,84.06
2023-03-12T07:49:01.385Z,84.71
2023-03-12T07:51:48.104Z,84.21
2023-03-12T07:54:34.800Z,82.70
2023-03-12T07:57:22.539Z,81.62
2023-03-12T08:00:10.404Z,81.23
2023-03-12T08:02:59.903Z,80.21
2023-03-12T08:06:04.611Z,74.76
2023-03-12T08:08:50.962Z,66.98
2023-03-12T08:11:37.853Z,59.70
2023-03-12T08:14:24.499Z,52.80
2023-03-12T08:17:11.094Z,50.17
2023-03-12T08:19:57.785Z,50.41
2023-03-12T08:22:44.594Z,53.69
2023-03-12T08:25:30.801Z,54.44
2023-03-12T08:28:19.213Z,49.52
2023-03-12T08:31:06.324Z,48.76
2023-03-12T08:33:53.062Z,47.30
2023-03-12T08:36:39.516Z,46.96
2023-03-12T08:39:26.384Z,44.67
2023-03-12T08:42:12.599Z,42.00
2023-03-12T08:44:59.177Z,38.53
2023-03-12T08:47:45.880Z,36.44
2023-03-12T08:50:32.751Z,34.17
2023-03-12T08:53:19.708Z,32.37
2023-03-12T08:56:06.722Z,31.80
2023-03-12T08:58:53.287Z,33.31
2023-03-12T09:01:43.064Z,34.08
2023-03-12T09:04:30.259Z,32.87
2023-03-12T09:07:21.524Z,31.80
2023-03-12T09:10:09.332Z,30.14
2023-03-12T09:12:55.878Z,29.55
2023-03-12T09:15:42.972Z,30.18
2023-03-12T09:18:30.025Z,30.82
2023-03-12T09:21:16.574Z,31.01
2023-03-12T09:24:03.618Z,30.07
2023-03-12T09:26:50.183Z,28.68
2023-03-12T09:29:41.332Z,29.98
2023-03-12T09:32:33.333Z,32.05
2023-03-12T09:35:19.998Z,33.18
2023-03-12T09:38:06.716Z,33.55
2023-03-12T09:40:54.857Z,32.96
2023-03-12T09:43:50.428Z,33.88
2023-03-12T09:46:50.586Z,32.57
2023-03-12T09:49:46.060Z,32.65
2023-03-12T09:53:05.186Z,32.60
2023-03-12T09:55:55.182Z,30.69
2023-03-12T09:58:43.939Z,29.90
2023-03-12T10:01:56.647Z,30.02
2023-03-12T10:05:31.034Z,29.27
2023-03-12T10:08:52.633Z,27.00
2023-03-12T10:12:02.962Z,25.15
2023-03-12T10:15:40.320Z,22.49
2023-03-12T10:18:57.858Z,21.03
2023-03-12T10:21:53.923Z,20.52
2023-03-12T10:25:06.917Z,20.59
2023-03-12T10:28:00.554Z,19.32
2023-03-12T10:30:56.685Z,18.55
2023-03-12T10:33:59.056Z,18.56
2023-03-12T10:36:46.200Z,17.86
2023-03-12T10:39:32.581Z,18.29
2023-03-12T10:42:24.211Z,17.96
2023-03-12T10:45:10.696Z,19.45
2023-03-12T10:48:24.901Z,21.01
2023-03-12T10:51:12.852Z,22.96
2023-03-12T10:53:59.296Z,23.22
2023-03-12T10:56:50.638Z,23.46
2023-03-12T10:59:44.053Z,25.26
2023-03-12T11:02:43.473Z,26.78
2023-03-12T11:05:47.984Z,28.35
2023-03-12T11:08:37.026Z,27.75
2023-03-12T11:11:32.894Z,27.50
2023-03-12T11:14:20.941Z,27.77
2023-03-12T11:17:22.253Z,26.85
2023-03-12T11:20:20.965Z,26.52
2023-03-12T11:23:21.466Z,25.47
2023-03-12T11:26:19.164Z,24.63
2023-03-12T11:29:27.752Z,24.82
2023-03-12T11:32:38.212Z,25.47
2023-03-12T11:36:03.862Z,25.14
2023-03-12T11:39:18.179Z,23.10
2023-03-12T11:42:27.831Z,21.66
2023-03-12T11:45:57.218Z,23.44
2023-03-12T11:49:06.199Z,24.22
2023-03-12T11:52:36.775Z,24.43
2023-03-12T11:55:35.277Z,24.76
2023-03-12T11:58:49.745Z,26.34
2023-03-12T12:02:18.363Z,28.46
2023-03-12T12:05:44.603Z,30.03
2023-03-12T12:09:04.885Z,30.04
2023-03-12T12:12:06.246Z,28.83
2023-03-12T12:15:16.653Z,27.06
2023-03-12T12:18:30.878Z,26.78
2023-03-12T12:21:19.720Z,26.43
2023-03-12T12:24:30.523Z,26.34
2023-03-12T12:27:25.693Z,26.30
2023-03-12T12:30:17.506Z,26.34
2023-03-12T12:33:16.904Z,26.26
2023-03-12T12:36:03.297Z,26.71
2023-03-12T12:39:00.691Z,27.90
2023-03-12T12:41:53.689Z,28.43
2023-03-12T12:44:48.306Z,29.39
2023-03-12T12:47:45.112Z,30.07
2023-03-12T12:50:37.799Z,31.13
2023-03-12T12:53:54.566Z,31.75
2023-03-12T12:56:46.743Z,32.95
2023-03-12T12:59:51.573Z,33.27
2023-03-12T13:02:41.625Z,34.51
2023-03-12T13:05:45.589Z,35.76
2023-03-12T13:08:43.703Z,36.82
2023-03-12T13:11:45.561Z,37.39
2023-03-12T13:14:39.263Z,37.97
2023-03-12T13:17:29.555Z,38.40
2023-03-12T13:20:20.341Z,39.56
2023-03-12T13:24:10.722Z,40.59
2023-03-12T13:27:20.505Z,41.97
2023-03-12T13:30:35.507Z,42.57
2023-03-12T13:33:44.683Z,43.58
2023-03-12T13:36:35.492Z,44.12
2023-03-12T13:39:35.323Z,44.22
2023-03-12T13:42:38.432Z,43.66
2023-03-12T13:45:31.229Z,43.60
2023-03-12T13:48:20.534Z,43.21
2023-03-12T13:51:20.501Z,43.00
2023-03-12T13:54:18.663Z,43.22
2023-03-12T13:57:23.451Z,42.97
2023-03-12T14:01:09.096Z,42.93
2023-03-12T14:04:08.087Z,42.98
2023-03-12T14:07:33.767Z,42.57
2023-03-12T14:10:55.707Z,40.41
2023-03-12T14:14:03.639Z,40.43
2023-03-12T14:17:01.923Z,39.58
2023-03-12T14:20:08.983Z,39.57
2023-03-12T14:23:12.766Z,39.50
2023-03-12T14:26:04.293Z,39.77
2023-03-12T14:29:25.917Z,40.13
2023-03-12T14:32:31.699Z,40.17
2023-03-12T14:35:41.264Z,40.42
2023-03-12T14:38:40.554Z,40.93
2023-03-12T14:41:42.915Z,41.31
2023-03-12T14:44:30.128Z,41.52
2023-03-12T14:47:17.774Z,41.66
2023-03-12T14:50:04.780Z,41.64
2023-03-12T14:52:51.898Z,41.92
2023-03-12T14:55:38.217Z,41.85
2023-03-12T14:58:24.531Z,42.32
2023-03-12T15:01:18.559Z,42.55
2023-03-12T15:04:14.706Z,42.36
2023-03-12T15:07:05.060Z,42.61
2023-03-12T15:09:52.049Z,42.28
2023-03-12T15:12:38.883Z,42.25
2023-03-12T15:15:41.014Z,42.34
2023-03-12T15:18:32.698Z,42.02
2023-03-12T15:21:20.513Z,41.84
2023-03-12T15:24:12.685Z,42.10
2023-03-12T15:27:22.768Z,42.67
2023-03-12T15:30:24.638Z,42.99
2023-03-12T15:33:18.193Z,43.44
2023-03-12T15:36:16.811Z,43.71
2023-03-12T15:39:29.399Z,43.95
2023-03-12T15:42:19.520Z,44.44
2023-03-12T15:45:19.442Z,44.90
2023-03-12T15:48:25.628Z,45.26
2023-03-12T15:51:34.015Z,46.09
2023-03-12T15:54:29.061Z,46.66
2023-03-12T15:57:25.414Z,47.47
2023-03-12T16:00:11.832Z,47.64
2023-03-12T16:03:05.534Z,47.86
2023-03-12T16:05:52.119Z,48.36
2023-03-12T16:08:52.330Z,48.62
2023-03-12T16:11:38.823Z,49.12
2023-03-12T16:14:33.953Z,49.14
2023-03-12T16:17:22.398Z,49.79
2023-03-12T16:20:14.578Z,50.18
2023-03-12T16:23:01.076Z,50.84
2023-03-12T16:25:52.332Z,51.26
2023-03-12T16:28:39.408Z,51.21
2023-03-12T16:31:26.139Z,51.70
2023-03-12T16:34:12.696Z,52.07
2023-03-12T16:36:59.290Z,52.55
2023-03-12T16:39:47.657Z,52.84
2023-03-12T16:42:35.250Z,53.31
2023-03-12T16:45:22.385Z,53.60
2023-03-12T16:48:15.083Z,53.60
2023-03-12T16:51:01.530Z,53.95
2023-03-12T16:53:58.519Z,54.07
2023-03-12T16:56:48.790Z,54.20
2023-03-12T16:59:37.565Z,54.72
2023-03-12T17:02:24.073Z,54.80
2023-03-12T17:05:12.510Z,55.40
2023-03-12T17:07:59.415Z,55.40
2023-03-12T17:10:46.311Z,55.94
2023-03-12T17:13:36.226Z,55.92
2023-03-12T17:16:23.450Z,56.18
2023-03-12T17:19:09.982Z,56.17
2023-03-12T17:21:57.342Z,56.27
2023-03-12T17:24:46.479Z,56.40
2023-03-12T17:27:33.327Z,56.39
2023-03-12T17:30:21.411Z,56.55
2023-03-12T17:33:14.374Z,56.83
2023-03-12T17:36:06.355Z,57.05
2023-03-12T17:38:53.011Z,57.34
2023-03-12T17:41:39.394Z,58.01
2023-03-12T17:44:32.014Z,58.12
2023-03-12T17:47:18.503Z,58.70
2023-03-12T17:50:06.619Z,59.32
2023-03-12T17:52:53.510Z,59.79
2023-03-12T17:55:40.093Z,60.51
2023-03-12T17:58:27.465Z,60.64
2023-03-12T18:01:15.977Z,60.84
2023-03-12T18:04:02.460Z,61.12
2023-03-12T18:06:49.272Z,61.63
2023-03-12T18:09:36.168Z,61.91
2023-03-12T18:12:22.404Z,61.84
2023-03-12T18:15:13.654Z,61.98
2023-03-12T18:18:00.474Z,62.26
2023-03-12T18:20:48.557Z,62.59
2023-03-12T18:23:35.020Z,62.87
2023-03-12T18:26:21.457Z,63.04
2023-03-12T18:29:08.241Z,63.13
2023-03-12T18:31:56.060Z,63.01
2023-03-12T18:34:44.337Z,63.34
2023-03-12T18:37:31.431Z,63.12
2023-03-12T18:40:17.981Z,62.99
2023-03-12T18:43:04.320Z,63.19
2023-03-12T18:45:53.088Z,63.23
2023-03-12T18:48:39.494Z,63.49
2023-03-12T18:51:26.190Z,63.66
2023-03-12T18:54:12.883Z,63.66
2023-03-12T18:57:00.054Z,63.92
2023-03-12T18:59:46.622Z,64.12
2023-03-12T19:02:33.381Z,64.44
2023-03-12T19:05:19.700Z,64.31
2023-03-12T19:08:06.074Z,64.30
2023-03-12T19:10:52.478Z,64.37
2023-03-12T19:13:39.400Z,65.04
2023-03-12T19:16:25.853Z,65.01
2023-03-12T19:19:12.552Z,65.83
2023-03-12T19:21:59.198Z,65.53
2023-03-12T19:24:45.588Z,65.94
2023-03-12T19:27:32.034Z,65.60
2023-03-12T19:30:19.083Z,65.57
2023-03-12T19:33:05.904Z,65.72
2023-03-12T19:35:52.969Z,65.69
2023-03-12T19:38:40.503Z,65.59
2023-03-12T19:41:27.714Z,65.80
2023-03-12T19:44:14.298Z,65.58
2023-03-12T19:47:01.826Z,65.62
2023-03-12T19:49:48.488Z,65.56
2023-03-12T19:52:34.998Z,65.66
2023-03-12T19:55:22.163Z,66.01
2023-03-12T19:58:09.387Z,65.71
2023-03-12T20:01:03.233Z,65.63
2023-03-12T20:03:56.619Z,65.62
2023-03-12T20:06:43.794Z,65.89
2023-03-12T20:09:30.738Z,65.76
2023-03-12T20:12:18.482Z,65.70
2023-03-12T20:15:06.072Z,65.56
2023-03-12T20:17:59.287Z,65.51
2023-03-12T20:20:47.180Z,65.33
2023-03-12T20:23:33.579Z,65.00
2023-03-12T20:26:19.870Z,64.89
2023-03-12T20:29:06.673Z,64.73
2023-03-12T20:31:53.520Z,64.82
2023-03-12T20:34:40.173Z,64.69
2023-03-12T20:37:26.626Z,64.68
2023-03-12T20:40:13.296Z,64.52
2023-03-12T20:43:04.202Z,64.56
2023-03-12T20:45:50.889Z,64.48
2023-03-12T20:48:37.493Z,64.45
2023-03-12T20:51:24.365Z,64.40
2023-03-12T20:54:11.349Z,64.49
2023-03-12T20:56:58.249Z,64.45
2023-03-12T20:59:44.607Z,64.42
2023-03-12T21:02:31.282Z,64.75
2023-03-12T21:05:18.083Z,64.59
2023-03-12T21:08:04.894Z,64.64
2023-03-12T21:10:52.207Z,64.50
2023-03-12T21:13:38.692Z,64.80
2023-03-12T21:16:25.116Z,65.02
2023-03-12T21:19:11.514Z,64.93
2023-03-12T21:21:57.689Z,65.29
2023-03-12T21:24:44.172Z,65.57
2023-03-12T21:27:38.233Z,65.49
2023-03-12T21:30:31.634Z,66.11
2023-03-12T21:33:19.934Z,65.89
2023-03-12T21:36:10.010Z,66.19
2023-03-12T21:38:56.933Z,66.43
2023-03-12T21:41:43.602Z,66.31
2023-03-12T21:44:29.705Z,66.45
2023-03-12T21:47:16.153Z,66.70
2023-03-12T21:50:02.409Z,66.72
2023-03-12T21:52:50.188Z,66.90
2023-03-12T21:55:36.506Z,66.99
2023-03-12T21:58:23.109Z,66.62
2023-03-12T22:01:13.768Z,66.37
2023-03-12T22:04:00.939Z,66.63
2023-03-12T22:06:47.533Z,66.39
2023-03-12T22:09:33.812Z,66.35
2023-03-12T22:12:20.415Z,66.79
2023-03-12T22:15:08.427Z,66.60
2023-03-12T22:17:54.857Z,66.39
2023-03-12T22:20:41.360Z,66.44
2023-03-12T22:23:28.597Z,66.51
2023-03-12T22:26:15.269Z,66.53
2023-03-12T22:29:01.866Z,66.70
2023-03-12T22:31:49.308Z,66.65
2023-03-12T22:34:36.873Z,66.52
2023-03-12T22:37:23.655Z,66.98
2023-03-12T22:40:11.269Z,66.89
2023-03-12T22:42:57.712Z,67.26
2023-03-12T22:45:43.866Z,67.10
2023-03-12T22:48:31.407Z,67.43
2023-03-12T22:51:18.219Z,67.20
2023-03-12T22:54:04.661Z,67.20
2023-03-12T22:56:51.185Z,67.13
2023-03-12T22:59:37.691Z,67.02
2023-03-12T23:02:24.315Z,66.80
2023-03-12T23:05:11.065Z,66.80
2023-03-12T23:07:57.326Z,66.81
2023-03-12T23:10:59.334Z,66.80
2023-03-12T23:13:47.652Z,66.84
2023-03-12T23:16:34.349Z,66.86
2023-03-12T23:19:21.321Z,67.00
2023-03-12T23:22:08.542Z,66.88
2023-03-12T23:24:55.393Z,66.90
2023-03-12T23:27:41.600Z,67.11
2023-03-12T23:30:27.835Z,67.24
2023-03-12T23:33:13.890Z,67.46
2023-03-12T23:36:02.897Z,67.68
2023-03-12T23:38:50.287Z,67.86
2023-03-12T23:41:37.348Z,68.22
2023-03-12T23:44:24.272Z,68.02
2023-03-12T23:47:10.731Z,68.07
2023-03-12T23:49:57.381Z,68.65
2023-03-12T23:52:43.773Z,68.41
2023-03-12T23:55:30.499Z,68.59
2023-03-12T23:58:16.936Z,69.02
